Airport ID:KCCB
Update Time (UTC):10/08/2020 22:36
Wind Speed (Knots):10
Wind Direction (Magnetic):250
Temperature (°C):32.2
Dew Point (°C):7.8
Humidity (%):21.6
Altimeter (inHg):29.91
Density Altitude (Feet):03900
Visibility (Miles):10
Clouds (Hundreds of feet):CLR
Present Weather:
METAR:METAR KCCB 102235Z AUTO 25009KT 10SM CLR 32/08 A2991 RMK AO2

The data displayed is for advisory purposes only and is not to be used for flight planning or operations.